sensor_id;sensor_type;location;lat;lon;timestamp;P1;durP1;ratioP1;P2;durP2;ratioP2
18146;SDS011;9199;48.832;9.182;2023-09-18T00:00:50;7.90;;;4.10;;
18146;SDS011;9199;48.832;9.182;2023-09-18T00:03:17;7.78;;;3.67;;
18146;SDS011;9199;48.832;9.182;2023-09-18T00:05:44;7.63;;;3.67;;
18146;SDS011;9199;48.832;9.182;2023-09-18T00:08:12;6.32;;;3.67;;
18146;SDS011;9199;48.832;9.182;2023-09-18T00:10:39;8.23;;;4.05;;
18146;SDS011;9199;48.832;9.182;2023-09-18T00:13:06;7.73;;;3.97;;
18146;SDS011;9199;48.832;9.182;2023-09-18T00:15:33;7.75;;;4.38;;
18146;SDS011;9199;48.832;9.182;2023-09-18T00:18:03;7.20;;;4.10;;
18146;SDS011;9199;48.832;9.182;2023-09-18T00:20:30;7.45;;;4.13;;
18146;SDS011;9199;48.832;9.182;2023-09-18T00:22:57;8.50;;;3.90;;
18146;SDS011;9199;48.832;9.182;2023-09-18T00:25:23;7.63;;;4.30;;
18146;SDS011;9199;48.832;9.182;2023-09-18T00:27:50;8.20;;;4.32;;
18146;SDS011;9199;48.832;9.182;2023-09-18T00:30:17;6.78;;;4.40;;
18146;SDS011;9199;48.832;9.182;2023-09-18T00:32:44;8.30;;;4.35;;
18146;SDS011;9199;48.832;9.182;2023-09-18T00:35:13;7.25;;;3.83;;
18146;SDS011;9199;48.832;9.182;2023-09-18T00:37:40;7.80;;;3.80;;
18146;SDS011;9199;48.832;9.182;2023-09-18T00:40:08;8.15;;;3.90;;
18146;SDS011;9199;48.832;9.182;2023-09-18T00:42:36;6.78;;;3.80;;
18146;SDS011;9199;48.832;9.182;2023-09-18T00:45:03;9.35;;;4.22;;
18146;SDS011;9199;48.832;9.182;2023-09-18T00:47:31;9.25;;;4.68;;
18146;SDS011;9199;48.832;9.182;2023-09-18T00:49:58;10.07;;;4.37;;
18146;SDS011;9199;48.832;9.182;2023-09-18T00:52:26;7.95;;;3.70;;
18146;SDS011;9199;48.832;9.182;2023-09-18T00:54:53;7.45;;;3.90;;
18146;SDS011;9199;48.832;9.182;2023-09-18T00:57:20;9.18;;;4.50;;
18146;SDS011;9199;48.832;9.182;2023-09-18T00:59:47;7.53;;;4.35;;
18146;SDS011;9199;48.832;9.182;2023-09-18T01:02:14;9.23;;;4.23;;
18146;SDS011;9199;48.832;9.182;2023-09-18T01:04:41;8.85;;;3.90;;
18146;SDS011;9199;48.832;9.182;2023-09-18T01:07:09;7.88;;;4.00;;
18146;SDS011;9199;48.832;9.182;2023-09-18T01:09:37;8.65;;;4.53;;
18146;SDS011;9199;48.832;9.182;2023-09-18T01:12:06;8.27;;;4.20;;
18146;SDS011;9199;48.832;9.182;2023-09-18T01:14:38;8.10;;;4.03;;
18146;SDS011;9199;48.832;9.182;2023-09-18T01:17:09;7.75;;;4.22;;
18146;SDS011;9199;48.832;9.182;2023-09-18T01:19:37;8.13;;;4.25;;
18146;SDS011;9199;48.832;9.182;2023-09-18T01:22:05;6.38;;;3.92;;
18146;SDS011;9199;48.832;9.182;2023-09-18T01:24:33;7.22;;;3.92;;
18146;SDS011;9199;48.832;9.182;2023-09-18T01:27:01;6.43;;;3.67;;
18146;SDS011;9199;48.832;9.182;2023-09-18T01:29:29;6.78;;;3.67;;
18146;SDS011;9199;48.832;9.182;2023-09-18T01:31:56;8.43;;;3.53;;
18146;SDS011;9199;48.832;9.182;2023-09-18T01:34:25;7.28;;;3.55;;
18146;SDS011;9199;48.832;9.182;2023-09-18T01:36:56;7.28;;;3.53;;
18146;SDS011;9199;48.832;9.182;2023-09-18T01:39:24;7.63;;;3.70;;
18146;SDS011;9199;48.832;9.182;2023-09-18T01:41:57;8.30;;;4.18;;
18146;SDS011;9199;48.832;9.182;2023-09-18T01:44:24;9.48;;;4.55;;
18146;SDS011;9199;48.832;9.182;2023-09-18T01:46:51;7.55;;;4.18;;
18146;SDS011;9199;48.832;9.182;2023-09-18T01:49:26;7.63;;;4.50;;
18146;SDS011;9199;48.832;9.182;2023-09-18T01:51:53;7.53;;;4.00;;
18146;SDS011;9199;48.832;9.182;2023-09-18T01:54:20;7.85;;;4.15;;
18146;SDS011;9199;48.832;9.182;2023-09-18T01:56:47;6.75;;;3.72;;
18146;SDS011;9199;48.832;9.182;2023-09-18T01:59:15;6.22;;;3.10;;
18146;SDS011;9199;48.832;9.182;2023-09-18T02:01:41;5.55;;;3.10;;
18146;SDS011;9199;48.832;9.182;2023-09-18T02:04:08;6.43;;;2.70;;
18146;SDS011;9199;48.832;9.182;2023-09-18T02:06:35;6.30;;;2.45;;
18146;SDS011;9199;48.832;9.182;2023-09-18T02:09:01;8.23;;;2.30;;
18146;SDS011;9199;48.832;9.182;2023-09-18T02:11:28;6.85;;;2.60;;
18146;SDS011;9199;48.832;9.182;2023-09-18T02:13:55;9.00;;;2.10;;
18146;SDS011;9199;48.832;9.182;2023-09-18T02:16:23;7.23;;;2.43;;
18146;SDS011;9199;48.832;9.182;2023-09-18T02:18:53;10.88;;;2.40;;
18146;SDS011;9199;48.832;9.182;2023-09-18T02:21:21;8.50;;;2.70;;
18146;SDS011;9199;48.832;9.182;2023-09-18T02:23:48;13.68;;;2.95;;
18146;SDS011;9199;48.832;9.182;2023-09-18T02:26:15;8.60;;;2.30;;
18146;SDS011;9199;48.832;9.182;2023-09-18T02:28:42;7.97;;;2.67;;
18146;SDS011;9199;48.832;9.182;2023-09-18T02:31:08;8.60;;;2.45;;
18146;SDS011;9199;48.832;9.182;2023-09-18T02:33:36;6.63;;;3.00;;
18146;SDS011;9199;48.832;9.182;2023-09-18T02:36:03;8.10;;;2.50;;
18146;SDS011;9199;48.832;9.182;2023-09-18T02:38:30;6.68;;;2.47;;
18146;SDS011;9199;48.832;9.182;2023-09-18T02:40:58;6.73;;;2.57;;
18146;SDS011;9199;48.832;9.182;2023-09-18T02:43:24;9.60;;;2.60;;
18146;SDS011;9199;48.832;9.182;2023-09-18T02:45:51;10.50;;;2.60;;
18146;SDS011;9199;48.832;9.182;2023-09-18T02:48:18;8.70;;;2.70;;
18146;SDS011;9199;48.832;9.182;2023-09-18T02:50:46;12.95;;;2.95;;
18146;SDS011;9199;48.832;9.182;2023-09-18T02:53:16;10.53;;;2.50;;
18146;SDS011;9199;48.832;9.182;2023-09-18T02:55:44;12.07;;;2.70;;
18146;SDS011;9199;48.832;9.182;2023-09-18T02:58:11;10.70;;;2.72;;
18146;SDS011;9199;48.832;9.182;2023-09-18T03:00:40;14.07;;;2.92;;
18146;SDS011;9199;48.832;9.182;2023-09-18T03:03:08;7.30;;;2.10;;
18146;SDS011;9199;48.832;9.182;2023-09-18T03:05:35;11.93;;;2.77;;
18146;SDS011;9199;48.832;9.182;2023-09-18T03:08:03;10.40;;;2.90;;
18146;SDS011;9199;48.832;9.182;2023-09-18T03:10:32;9.88;;;2.33;;
18146;SDS011;9199;48.832;9.182;2023-09-18T03:13:00;10.25;;;2.60;;
18146;SDS011;9199;48.832;9.182;2023-09-18T03:15:27;9.27;;;2.63;;
18146;SDS011;9199;48.832;9.182;2023-09-18T03:17:54;8.97;;;2.47;;
18146;SDS011;9199;48.832;9.182;2023-09-18T03:20:22;9.27;;;2.75;;
18146;SDS011;9199;48.832;9.182;2023-09-18T03:22:49;11.10;;;2.75;;
18146;SDS011;9199;48.832;9.182;2023-09-18T03:25:18;13.30;;;3.15;;
18146;SDS011;9199;48.832;9.182;2023-09-18T03:27:44;10.40;;;3.00;;
18146;SDS011;9199;48.832;9.182;2023-09-18T03:30:11;9.63;;;3.00;;
18146;SDS011;9199;48.832;9.182;2023-09-18T03:32:40;9.10;;;2.97;;
18146;SDS011;9199;48.832;9.182;2023-09-18T03:35:07;8.52;;;2.55;;
18146;SDS011;9199;48.832;9.182;2023-09-18T03:37:40;9.60;;;2.95;;
18146;SDS011;9199;48.832;9.182;2023-09-18T03:40:07;10.15;;;2.60;;
18146;SDS011;9199;48.832;9.182;2023-09-18T03:42:36;8.50;;;2.70;;
18146;SDS011;9199;48.832;9.182;2023-09-18T03:45:04;10.85;;;3.50;;
18146;SDS011;9199;48.832;9.182;2023-09-18T03:47:33;9.05;;;2.60;;
18146;SDS011;9199;48.832;9.182;2023-09-18T03:50:00;9.10;;;2.80;;
18146;SDS011;9199;48.832;9.182;2023-09-18T03:52:27;7.30;;;2.60;;
18146;SDS011;9199;48.832;9.182;2023-09-18T03:54:53;9.90;;;2.93;;
18146;SDS011;9199;48.832;9.182;2023-09-18T03:57:20;12.00;;;2.70;;
18146;SDS011;9199;48.832;9.182;2023-09-18T03:59:48;10.40;;;2.92;;
18146;SDS011;9199;48.832;9.182;2023-09-18T04:02:15;9.38;;;3.00;;
18146;SDS011;9199;48.832;9.182;2023-09-18T04:04:42;11.38;;;2.90;;
18146;SDS011;9199;48.832;9.182;2023-09-18T04:07:09;10.47;;;2.80;;
18146;SDS011;9199;48.832;9.182;2023-09-18T04:09:36;11.43;;;2.90;;
18146;SDS011;9199;48.832;9.182;2023-09-18T04:12:05;11.88;;;3.15;;
18146;SDS011;9199;48.832;9.182;2023-09-18T04:14:32;10.13;;;3.25;;
18146;SDS011;9199;48.832;9.182;2023-09-18T04:17:00;10.25;;;3.00;;
18146;SDS011;9199;48.832;9.182;2023-09-18T04:19:27;8.80;;;2.87;;
18146;SDS011;9199;48.832;9.182;2023-09-18T04:21:54;11.23;;;2.85;;
18146;SDS011;9199;48.832;9.182;2023-09-18T04:24:21;9.23;;;2.80;;
18146;SDS011;9199;48.832;9.182;2023-09-18T04:26:48;9.23;;;2.97;;
18146;SDS011;9199;48.832;9.182;2023-09-18T04:29:15;11.85;;;3.55;;
18146;SDS011;9199;48.832;9.182;2023-09-18T04:31:42;11.57;;;3.33;;
18146;SDS011;9199;48.832;9.182;2023-09-18T04:34:11;8.55;;;3.40;;
18146;SDS011;9199;48.832;9.182;2023-09-18T04:36:37;10.15;;;2.90;;
18146;SDS011;9199;48.832;9.182;2023-09-18T04:39:04;8.35;;;2.92;;
18146;SDS011;9199;48.832;9.182;2023-09-18T04:41:31;10.05;;;3.08;;
18146;SDS011;9199;48.832;9.182;2023-09-18T04:43:58;12.13;;;3.20;;
18146;SDS011;9199;48.832;9.182;2023-09-18T04:46:25;11.85;;;3.10;;
18146;SDS011;9199;48.832;9.182;2023-09-18T04:48:52;11.18;;;2.85;;
18146;SDS011;9199;48.832;9.182;2023-09-18T04:51:20;10.00;;;2.80;;
18146;SDS011;9199;48.832;9.182;2023-09-18T04:53:47;12.30;;;3.15;;
18146;SDS011;9199;48.832;9.182;2023-09-18T04:56:13;8.37;;;3.10;;
18146;SDS011;9199;48.832;9.182;2023-09-18T04:58:40;9.88;;;2.80;;
18146;SDS011;9199;48.832;9.182;2023-09-18T05:01:07;10.85;;;2.83;;
18146;SDS011;9199;48.832;9.182;2023-09-18T05:03:36;11.90;;;3.25;;
18146;SDS011;9199;48.832;9.182;2023-09-18T05:06:03;11.63;;;3.30;;
18146;SDS011;9199;48.832;9.182;2023-09-18T05:08:31;9.30;;;3.33;;
18146;SDS011;9199;48.832;9.182;2023-09-18T05:10:58;11.45;;;3.47;;
18146;SDS011;9199;48.832;9.182;2023-09-18T05:13:25;10.52;;;3.22;;
18146;SDS011;9199;48.832;9.182;2023-09-18T05:15:51;10.25;;;3.20;;
18146;SDS011;9199;48.832;9.182;2023-09-18T05:18:18;10.07;;;3.10;;
18146;SDS011;9199;48.832;9.182;2023-09-18T05:20:46;12.40;;;3.20;;
18146;SDS011;9199;48.832;9.182;2023-09-18T05:23:13;11.80;;;3.30;;
18146;SDS011;9199;48.832;9.182;2023-09-18T05:25:41;13.80;;;3.33;;
18146;SDS011;9199;48.832;9.182;2023-09-18T05:28:09;10.27;;;3.30;;
18146;SDS011;9199;48.832;9.182;2023-09-18T05:30:36;11.40;;;3.13;;
18146;SDS011;9199;48.832;9.182;2023-09-18T05:33:04;10.87;;;3.47;;
18146;SDS011;9199;48.832;9.182;2023-09-18T05:35:32;13.20;;;3.30;;
18146;SDS011;9199;48.832;9.182;2023-09-18T05:38:01;12.15;;;3.30;;
18146;SDS011;9199;48.832;9.182;2023-09-18T05:40:28;10.57;;;3.30;;
18146;SDS011;9199;48.832;9.182;2023-09-18T05:42:57;7.50;;;2.65;;
18146;SDS011;9199;48.832;9.182;2023-09-18T05:45:24;10.50;;;3.10;;
18146;SDS011;9199;48.832;9.182;2023-09-18T05:47:52;13.98;;;3.33;;
18146;SDS011;9199;48.832;9.182;2023-09-18T05:50:19;9.00;;;2.78;;
18146;SDS011;9199;48.832;9.182;2023-09-18T05:52:46;11.57;;;2.90;;
18146;SDS011;9199;48.832;9.182;2023-09-18T05:55:13;10.75;;;2.80;;
18146;SDS011;9199;48.832;9.182;2023-09-18T05:57:40;8.13;;;2.70;;
18146;SDS011;9199;48.832;9.182;2023-09-18T06:00:09;9.55;;;2.63;;
18146;SDS011;9199;48.832;9.182;2023-09-18T06:02:38;12.55;;;2.70;;
18146;SDS011;9199;48.832;9.182;2023-09-18T06:05:05;10.15;;;2.58;;
18146;SDS011;9199;48.832;9.182;2023-09-18T06:07:32;11.60;;;2.83;;
18146;SDS011;9199;48.832;9.182;2023-09-18T06:09:59;9.33;;;3.00;;
18146;SDS011;9199;48.832;9.182;2023-09-18T06:12:26;10.38;;;3.08;;
18146;SDS011;9199;48.832;9.182;2023-09-18T06:14:52;10.15;;;2.70;;
18146;SDS011;9199;48.832;9.182;2023-09-18T06:17:21;8.48;;;2.80;;
18146;SDS011;9199;48.832;9.182;2023-09-18T06:19:48;9.68;;;3.08;;
18146;SDS011;9199;48.832;9.182;2023-09-18T06:22:14;9.57;;;2.90;;
18146;SDS011;9199;48.832;9.182;2023-09-18T06:24:41;11.38;;;2.53;;
18146;SDS011;9199;48.832;9.182;2023-09-18T06:27:08;10.35;;;2.60;;
18146;SDS011;9199;48.832;9.182;2023-09-18T06:29:36;9.38;;;2.97;;
18146;SDS011;9199;48.832;9.182;2023-09-18T06:32:04;8.35;;;2.72;;
18146;SDS011;9199;48.832;9.182;2023-09-18T06:34:32;8.80;;;2.83;;
18146;SDS011;9199;48.832;9.182;2023-09-18T06:36:59;8.07;;;2.40;;
18146;SDS011;9199;48.832;9.182;2023-09-18T06:39:26;9.77;;;2.72;;
18146;SDS011;9199;48.832;9.182;2023-09-18T06:41:53;11.57;;;2.10;;
18146;SDS011;9199;48.832;9.182;2023-09-18T06:44:19;10.32;;;2.70;;
18146;SDS011;9199;48.832;9.182;2023-09-18T06:46:48;10.77;;;2.77;;
18146;SDS011;9199;48.832;9.182;2023-09-18T06:49:15;8.32;;;2.65;;
18146;SDS011;9199;48.832;9.182;2023-09-18T06:51:43;11.45;;;2.30;;
18146;SDS011;9199;48.832;9.182;2023-09-18T06:54:09;8.63;;;2.10;;
18146;SDS011;9199;48.832;9.182;2023-09-18T06:56:36;8.10;;;2.17;;
18146;SDS011;9199;48.832;9.182;2023-09-18T06:59:03;8.00;;;2.27;;
18146;SDS011;9199;48.832;9.182;2023-09-18T07:01:30;11.27;;;2.50;;
18146;SDS011;9199;48.832;9.182;2023-09-18T07:03:58;10.82;;;2.60;;
18146;SDS011;9199;48.832;9.182;2023-09-18T07:06:25;8.70;;;2.30;;
18146;SDS011;9199;48.832;9.182;2023-09-18T07:08:53;7.35;;;2.20;;
18146;SDS011;9199;48.832;9.182;2023-09-18T07:11:19;6.97;;;2.00;;
18146;SDS011;9199;48.832;9.182;2023-09-18T07:13:46;9.52;;;2.42;;
18146;SDS011;9199;48.832;9.182;2023-09-18T07:16:13;8.65;;;2.00;;
18146;SDS011;9199;48.832;9.182;2023-09-18T07:18:39;7.35;;;2.03;;
18146;SDS011;9199;48.832;9.182;2023-09-18T07:21:06;8.05;;;2.30;;
18146;SDS011;9199;48.832;9.182;2023-09-18T07:23:33;7.97;;;1.90;;
18146;SDS011;9199;48.832;9.182;2023-09-18T07:26:03;5.82;;;2.03;;
18146;SDS011;9199;48.832;9.182;2023-09-18T07:28:31;10.35;;;1.95;;
18146;SDS011;9199;48.832;9.182;2023-09-18T07:31:02;9.75;;;2.40;;
18146;SDS011;9199;48.832;9.182;2023-09-18T07:33:31;8.63;;;2.03;;
18146;SDS011;9199;48.832;9.182;2023-09-18T07:35:57;9.50;;;2.30;;
18146;SDS011;9199;48.832;9.182;2023-09-18T07:38:24;9.60;;;2.60;;
18146;SDS011;9199;48.832;9.182;2023-09-18T07:40:51;5.82;;;1.42;;
18146;SDS011;9199;48.832;9.182;2023-09-18T07:43:19;5.60;;;1.35;;
18146;SDS011;9199;48.832;9.182;2023-09-18T07:45:46;6.03;;;1.40;;
18146;SDS011;9199;48.832;9.182;2023-09-18T07:48:12;5.03;;;1.47;;
18146;SDS011;9199;48.832;9.182;2023-09-18T07:50:43;7.90;;;1.60;;
18146;SDS011;9199;48.832;9.182;2023-09-18T07:53:10;4.72;;;1.48;;
18146;SDS011;9199;48.832;9.182;2023-09-18T07:55:36;6.80;;;1.60;;
18146;SDS011;9199;48.832;9.182;2023-09-18T07:58:03;5.47;;;1.40;;
18146;SDS011;9199;48.832;9.182;2023-09-18T08:00:31;6.27;;;1.47;;
18146;SDS011;9199;48.832;9.182;2023-09-18T08:02:59;5.38;;;1.30;;
18146;SDS011;9199;48.832;9.182;2023-09-18T08:05:27;3.63;;;0.90;;
18146;SDS011;9199;48.832;9.182;2023-09-18T08:07:55;8.25;;;1.63;;
18146;SDS011;9199;48.832;9.182;2023-09-18T08:10:22;4.43;;;1.10;;
18146;SDS011;9199;48.832;9.182;2023-09-18T08:12:49;7.53;;;1.40;;
18146;SDS011;9199;48.832;9.182;2023-09-18T08:15:17;5.82;;;1.40;;
18146;SDS011;9199;48.832;9.182;2023-09-18T08:17:46;6.25;;;1.40;;
18146;SDS011;9199;48.832;9.182;2023-09-18T08:20:13;3.97;;;1.20;;
18146;SDS011;9199;48.832;9.182;2023-09-18T08:22:40;5.38;;;1.20;;
18146;SDS011;9199;48.832;9.182;2023-09-18T08:25:07;3.80;;;1.10;;
18146;SDS011;9199;48.832;9.182;2023-09-18T08:27:36;4.10;;;0.98;;
18146;SDS011;9199;48.832;9.182;2023-09-18T08:30:05;6.07;;;1.20;;
18146;SDS011;9199;48.832;9.182;2023-09-18T08:32:34;4.82;;;1.02;;
18146;SDS011;9199;48.832;9.182;2023-09-18T08:35:02;6.15;;;1.10;;
18146;SDS011;9199;48.832;9.182;2023-09-18T08:37:30;3.50;;;1.13;;
18146;SDS011;9199;48.832;9.182;2023-09-18T08:39:56;5.00;;;1.00;;
18146;SDS011;9199;48.832;9.182;2023-09-18T08:42:24;4.15;;;1.10;;
18146;SDS011;9199;48.832;9.182;2023-09-18T08:44:55;4.88;;;1.50;;
18146;SDS011;9199;48.832;9.182;2023-09-18T08:47:24;5.13;;;0.90;;
18146;SDS011;9199;48.832;9.182;2023-09-18T08:49:52;4.10;;;1.10;;
18146;SDS011;9199;48.832;9.182;2023-09-18T08:52:22;4.25;;;1.20;;
18146;SDS011;9199;48.832;9.182;2023-09-18T08:54:51;4.32;;;0.80;;
18146;SDS011;9199;48.832;9.182;2023-09-18T08:57:18;3.72;;;0.90;;
18146;SDS011;9199;48.832;9.182;2023-09-18T08:59:46;4.05;;;1.00;;
18146;SDS011;9199;48.832;9.182;2023-09-18T09:02:15;4.80;;;1.10;;
18146;SDS011;9199;48.832;9.182;2023-09-18T09:04:42;5.47;;;1.10;;
18146;SDS011;9199;48.832;9.182;2023-09-18T09:07:09;5.18;;;1.38;;
18146;SDS011;9199;48.832;9.182;2023-09-18T09:09:37;3.28;;;1.10;;
18146;SDS011;9199;48.832;9.182;2023-09-18T09:12:05;4.70;;;1.55;;
18146;SDS011;9199;48.832;9.182;2023-09-18T09:14:32;4.03;;;1.00;;
18146;SDS011;9199;48.832;9.182;2023-09-18T09:16:59;3.50;;;1.00;;
18146;SDS011;9199;48.832;9.182;2023-09-18T09:19:29;4.35;;;1.15;;
18146;SDS011;9199;48.832;9.182;2023-09-18T09:21:57;4.72;;;1.00;;
18146;SDS011;9199;48.832;9.182;2023-09-18T09:24:40;5.13;;;1.20;;
18146;SDS011;9199;48.832;9.182;2023-09-18T09:27:08;4.20;;;1.20;;
18146;SDS011;9199;48.832;9.182;2023-09-18T09:29:35;4.30;;;1.17;;
18146;SDS011;9199;48.832;9.182;2023-09-18T09:32:12;4.10;;;1.10;;
18146;SDS011;9199;48.832;9.182;2023-09-18T09:34:40;5.97;;;1.65;;
18146;SDS011;9199;48.832;9.182;2023-09-18T09:37:08;4.50;;;1.40;;
18146;SDS011;9199;48.832;9.182;2023-09-18T09:39:46;5.20;;;1.30;;
18146;SDS011;9199;48.832;9.182;2023-09-18T09:42:15;4.53;;;1.23;;
18146;SDS011;9199;48.832;9.182;2023-09-18T09:44:44;5.68;;;1.30;;
18146;SDS011;9199;48.832;9.182;2023-09-18T09:47:12;4.78;;;1.42;;
18146;SDS011;9199;48.832;9.182;2023-09-18T09:49:45;3.95;;;1.10;;
18146;SDS011;9199;48.832;9.182;2023-09-18T09:52:17;5.73;;;1.37;;
18146;SDS011;9199;48.832;9.182;2023-09-18T09:54:47;4.10;;;1.10;;
18146;SDS011;9199;48.832;9.182;2023-09-18T09:57:14;4.45;;;1.25;;
18146;SDS011;9199;48.832;9.182;2023-09-18T09:59:41;5.80;;;1.27;;
18146;SDS011;9199;48.832;9.182;2023-09-18T10:02:10;5.18;;;1.20;;
18146;SDS011;9199;48.832;9.182;2023-09-18T10:04:39;3.43;;;1.33;;
18146;SDS011;9199;48.832;9.182;2023-09-18T10:07:08;2.78;;;1.00;;
18146;SDS011;9199;48.832;9.182;2023-09-18T10:09:38;4.97;;;1.20;;
18146;SDS011;9199;48.832;9.182;2023-09-18T10:12:10;4.05;;;1.40;;
18146;SDS011;9199;48.832;9.182;2023-09-18T10:14:38;4.78;;;1.55;;
18146;SDS011;9199;48.832;9.182;2023-09-18T10:17:09;4.30;;;1.27;;
18146;SDS011;9199;48.832;9.182;2023-09-18T10:19:45;5.63;;;1.27;;
18146;SDS011;9199;48.832;9.182;2023-09-18T10:22:20;5.18;;;1.30;;
18146;SDS011;9199;48.832;9.182;2023-09-18T10:24:54;5.00;;;1.40;;
18146;SDS011;9199;48.832;9.182;2023-09-18T10:27:31;4.63;;;1.40;;
18146;SDS011;9199;48.832;9.182;2023-09-18T10:29:58;5.23;;;1.30;;
18146;SDS011;9199;48.832;9.182;2023-09-18T10:32:30;6.15;;;1.42;;
18146;SDS011;9199;48.832;9.182;2023-09-18T10:34:58;6.00;;;1.30;;
18146;SDS011;9199;48.832;9.182;2023-09-18T10:37:26;4.63;;;1.30;;
18146;SDS011;9199;48.832;9.182;2023-09-18T10:39:56;6.75;;;1.30;;
18146;SDS011;9199;48.832;9.182;2023-09-18T10:42:24;5.33;;;1.80;;
18146;SDS011;9199;48.832;9.182;2023-09-18T10:44:56;4.78;;;1.40;;
18146;SDS011;9199;48.832;9.182;2023-09-18T10:47:23;7.50;;;1.30;;
18146;SDS011;9199;48.832;9.182;2023-09-18T10:49:51;4.38;;;1.40;;
18146;SDS011;9199;48.832;9.182;2023-09-18T10:52:18;5.28;;;1.40;;
18146;SDS011;9199;48.832;9.182;2023-09-18T10:54:44;4.07;;;1.40;;
18146;SDS011;9199;48.832;9.182;2023-09-18T10:57:11;6.63;;;1.40;;
18146;SDS011;9199;48.832;9.182;2023-09-18T10:59:43;6.03;;;1.50;;
18146;SDS011;9199;48.832;9.182;2023-09-18T11:02:13;5.80;;;1.35;;
18146;SDS011;9199;48.832;9.182;2023-09-18T11:04:41;6.28;;;1.55;;
18146;SDS011;9199;48.832;9.182;2023-09-18T11:07:08;6.63;;;1.60;;
18146;SDS011;9199;48.832;9.182;2023-09-18T11:09:42;5.80;;;1.50;;
18146;SDS011;9199;48.832;9.182;2023-09-18T11:12:10;6.03;;;1.75;;
18146;SDS011;9199;48.832;9.182;2023-09-18T11:14:41;5.53;;;1.48;;
18146;SDS011;9199;48.832;9.182;2023-09-18T11:17:34;6.30;;;1.30;;
18146;SDS011;9199;48.832;9.182;2023-09-18T11:20:05;5.27;;;1.40;;
18146;SDS011;9199;48.832;9.182;2023-09-18T11:22:38;5.15;;;1.63;;
18146;SDS011;9199;48.832;9.182;2023-09-18T11:27:56;3.65;;;1.30;;
18146;SDS011;9199;48.832;9.182;2023-09-18T11:30:23;7.93;;;1.83;;
18146;SDS011;9199;48.832;9.182;2023-09-18T11:32:52;4.20;;;1.50;;
18146;SDS011;9199;48.832;9.182;2023-09-18T11:35:21;4.30;;;1.58;;
18146;SDS011;9199;48.832;9.182;2023-09-18T11:37:50;3.47;;;1.00;;
18146;SDS011;9199;48.832;9.182;2023-09-18T11:40:30;4.68;;;1.35;;
18146;SDS011;9199;48.832;9.182;2023-09-18T11:43:18;5.70;;;1.30;;
18146;SDS011;9199;48.832;9.182;2023-09-18T11:45:48;4.33;;;1.13;;
18146;SDS011;9199;48.832;9.182;2023-09-18T11:48:17;4.63;;;1.20;;
18146;SDS011;9199;48.832;9.182;2023-09-18T11:50:45;4.00;;;1.10;;
18146;SDS011;9199;48.832;9.182;2023-09-18T11:53:14;4.88;;;1.20;;
18146;SDS011;9199;48.832;9.182;2023-09-18T11:55:43;5.05;;;1.33;;
18146;SDS011;9199;48.832;9.182;2023-09-18T11:58:10;3.27;;;1.20;;
18146;SDS011;9199;48.832;9.182;2023-09-18T12:00:36;4.20;;;1.20;;
18146;SDS011;9199;48.832;9.182;2023-09-18T12:03:14;4.85;;;1.08;;
18146;SDS011;9199;48.832;9.182;2023-09-18T12:05:51;3.40;;;1.20;;
18146;SDS011;9199;48.832;9.182;2023-09-18T12:08:19;4.00;;;1.00;;
18146;SDS011;9199;48.832;9.182;2023-09-18T12:10:50;4.27;;;1.13;;
18146;SDS011;9199;48.832;9.182;2023-09-18T12:13:17;3.42;;;1.08;;
18146;SDS011;9199;48.832;9.182;2023-09-18T12:15:44;6.30;;;1.05;;
18146;SDS011;9199;48.832;9.182;2023-09-18T12:18:10;5.18;;;0.98;;
18146;SDS011;9199;48.832;9.182;2023-09-18T12:20:45;4.43;;;1.10;;
18146;SDS011;9199;48.832;9.182;2023-09-18T12:23:12;4.00;;;1.20;;
18146;SDS011;9199;48.832;9.182;2023-09-18T12:25:39;3.60;;;1.23;;
18146;SDS011;9199;48.832;9.182;2023-09-18T12:28:06;3.83;;;1.27;;
18146;SDS011;9199;48.832;9.182;2023-09-18T12:30:34;4.13;;;1.10;;
18146;SDS011;9199;48.832;9.182;2023-09-18T12:33:01;5.10;;;1.10;;
18146;SDS011;9199;48.832;9.182;2023-09-18T12:35:29;3.80;;;1.20;;
18146;SDS011;9199;48.832;9.182;2023-09-18T12:37:57;3.33;;;1.30;;
18146;SDS011;9199;48.832;9.182;2023-09-18T12:40:25;4.00;;;1.40;;
18146;SDS011;9199;48.832;9.182;2023-09-18T12:42:53;4.72;;;1.20;;
18146;SDS011;9199;48.832;9.182;2023-09-18T12:45:21;5.13;;;1.20;;
18146;SDS011;9199;48.832;9.182;2023-09-18T12:47:49;3.23;;;1.30;;
18146;SDS011;9199;48.832;9.182;2023-09-18T12:50:16;5.53;;;1.20;;
18146;SDS011;9199;48.832;9.182;2023-09-18T12:52:43;4.57;;;1.33;;
18146;SDS011;9199;48.832;9.182;2023-09-18T12:55:21;4.68;;;1.38;;
18146;SDS011;9199;48.832;9.182;2023-09-18T12:57:48;6.63;;;1.40;;
18146;SDS011;9199;48.832;9.182;2023-09-18T13:00:16;3.90;;;1.30;;
18146;SDS011;9199;48.832;9.182;2023-09-18T13:02:46;4.15;;;1.55;;
18146;SDS011;9199;48.832;9.182;2023-09-18T13:05:17;4.20;;;1.30;;
18146;SDS011;9199;48.832;9.182;2023-09-18T13:07:46;4.72;;;1.20;;
18146;SDS011;9199;48.832;9.182;2023-09-18T13:10:13;4.90;;;1.30;;
18146;SDS011;9199;48.832;9.182;2023-09-18T13:12:42;3.67;;;1.43;;
18146;SDS011;9199;48.832;9.182;2023-09-18T13:15:12;6.90;;;1.30;;
18146;SDS011;9199;48.832;9.182;2023-09-18T13:17:39;3.22;;;1.17;;
18146;SDS011;9199;48.832;9.182;2023-09-18T13:20:09;5.28;;;1.05;;
18146;SDS011;9199;48.832;9.182;2023-09-18T13:22:47;3.55;;;0.95;;
18146;SDS011;9199;48.832;9.182;2023-09-18T13:25:18;3.33;;;1.10;;
18146;SDS011;9199;48.832;9.182;2023-09-18T13:27:47;4.07;;;1.20;;
18146;SDS011;9199;48.832;9.182;2023-09-18T13:30:14;4.50;;;1.13;;
18146;SDS011;9199;48.832;9.182;2023-09-18T13:32:42;2.85;;;0.93;;
18146;SDS011;9199;48.832;9.182;2023-09-18T13:35:10;3.10;;;1.20;;
18146;SDS011;9199;48.832;9.182;2023-09-18T13:37:39;4.80;;;1.30;;
18146;SDS011;9199;48.832;9.182;2023-09-18T13:40:06;5.00;;;1.10;;
18146;SDS011;9199;48.832;9.182;2023-09-18T13:42:34;3.33;;;1.20;;
18146;SDS011;9199;48.832;9.182;2023-09-18T13:45:02;3.58;;;1.27;;
18146;SDS011;9199;48.832;9.182;2023-09-18T13:47:31;3.13;;;1.10;;
18146;SDS011;9199;48.832;9.182;2023-09-18T13:49:59;3.63;;;1.20;;
18146;SDS011;9199;48.832;9.182;2023-09-18T13:52:26;4.35;;;1.40;;
18146;SDS011;9199;48.832;9.182;2023-09-18T13:54:53;4.15;;;1.20;;
18146;SDS011;9199;48.832;9.182;2023-09-18T13:57:20;4.57;;;1.20;;
18146;SDS011;9199;48.832;9.182;2023-09-18T13:59:47;4.15;;;1.10;;
18146;SDS011;9199;48.832;9.182;2023-09-18T14:02:17;3.27;;;1.13;;
18146;SDS011;9199;48.832;9.182;2023-09-18T14:04:44;2.88;;;1.08;;
18146;SDS011;9199;48.832;9.182;2023-09-18T14:07:11;2.42;;;0.80;;
18146;SDS011;9199;48.832;9.182;2023-09-18T14:09:38;4.00;;;1.25;;
18146;SDS011;9199;48.832;9.182;2023-09-18T14:12:05;3.08;;;0.90;;
18146;SDS011;9199;48.832;9.182;2023-09-18T14:14:33;3.60;;;1.20;;
18146;SDS011;9199;48.832;9.182;2023-09-18T14:17:00;2.90;;;1.13;;
18146;SDS011;9199;48.832;9.182;2023-09-18T14:19:30;3.63;;;1.10;;
18146;SDS011;9199;48.832;9.182;2023-09-18T14:21:56;3.28;;;0.90;;
18146;SDS011;9199;48.832;9.182;2023-09-18T14:24:28;3.55;;;1.10;;
18146;SDS011;9199;48.832;9.182;2023-09-18T14:26:55;3.63;;;1.07;;
18146;SDS011;9199;48.832;9.182;2023-09-18T14:29:22;4.25;;;1.15;;
18146;SDS011;9199;48.832;9.182;2023-09-18T14:31:48;5.18;;;1.40;;
18146;SDS011;9199;48.832;9.182;2023-09-18T14:34:16;4.28;;;1.20;;
18146;SDS011;9199;48.832;9.182;2023-09-18T14:36:44;3.38;;;1.02;;
18146;SDS011;9199;48.832;9.182;2023-09-18T14:39:10;3.13;;;1.00;;
18146;SDS011;9199;48.832;9.182;2023-09-18T14:41:38;5.90;;;1.60;;
18146;SDS011;9199;48.832;9.182;2023-09-18T14:44:05;3.55;;;0.90;;
18146;SDS011;9199;48.832;9.182;2023-09-18T14:46:33;3.20;;;1.00;;
18146;SDS011;9199;48.832;9.182;2023-09-18T14:49:02;2.60;;;1.00;;
18146;SDS011;9199;48.832;9.182;2023-09-18T14:51:29;3.10;;;0.80;;
18146;SDS011;9199;48.832;9.182;2023-09-18T14:53:58;3.60;;;1.13;;
18146;SDS011;9199;48.832;9.182;2023-09-18T14:56:24;3.50;;;1.00;;
18146;SDS011;9199;48.832;9.182;2023-09-18T14:58:51;4.30;;;1.17;;
18146;SDS011;9199;48.832;9.182;2023-09-18T15:01:18;4.50;;;1.10;;
18146;SDS011;9199;48.832;9.182;2023-09-18T15:03:45;3.60;;;1.00;;
18146;SDS011;9199;48.832;9.182;2023-09-18T15:06:12;2.40;;;0.90;;